createdAt,value
2024-01-30T00:02:12.176Z,101510.78
2024-01-30T00:04:42.560Z,101513.84
2024-01-30T00:07:42.537Z,101514.13
2024-01-30T00:10:22.004Z,101517.72
2024-01-30T00:12:52.470Z,101529.31
2024-01-30T00:15:23.090Z,101531.78
2024-01-30T00:17:55.743Z,101535.63
2024-01-30T00:20:26.357Z,101540.88
2024-01-30T00:22:56.660Z,101546.66
2024-01-30T00:25:27.048Z,101542.81
2024-01-30T00:27:57.416Z,101555.25
2024-01-30T00:30:27.774Z,101547.50
2024-01-30T00:32:58.314Z,101569.56
2024-01-30T00:35:28.713Z,101571.78
2024-01-30T00:37:59.105Z,101577.84
2024-01-30T00:40:29.678Z,101579.47
2024-01-30T00:43:00.084Z,101588.28
2024-01-30T00:45:30.500Z,101577.53
2024-01-30T00:48:00.943Z,101586.09
2024-01-30T00:50:31.493Z,101591.09
2024-01-30T00:53:01.881Z,101597.13
2024-01-30T00:55:32.424Z,101599.34
2024-01-30T00:58:02.767Z,101606.22
2024-01-30T01:00:33.405Z,101608.16
2024-01-30T01:03:03.849Z,101599.88
2024-01-30T01:05:34.248Z,101608.97
2024-01-30T01:08:04.350Z,101608.97
2024-01-30T01:10:34.493Z,101605.41
2024-01-30T01:13:04.685Z,101602.91
2024-01-30T01:15:35.044Z,101608.44
2024-01-30T01:18:05.782Z,101609.81
2024-01-30T01:20:36.184Z,101619.78
2024-01-30T01:23:07.141Z,101615.59
2024-01-30T01:25:37.423Z,101617.31
2024-01-30T01:28:08.214Z,101604.66
2024-01-30T01:30:39.055Z,101606.56
2024-01-30T01:33:10.355Z,101608.75
2024-01-30T01:35:40.298Z,101607.63
2024-01-30T01:38:10.536Z,101606.56
2024-01-30T01:40:43.130Z,101608.22
2024-01-30T01:43:13.566Z,101618.13
2024-01-30T01:45:43.903Z,101618.94
2024-01-30T01:48:15.066Z,101622.84
2024-01-30T01:50:46.919Z,101629.38
2024-01-30T01:53:18.821Z,101632.13
2024-01-30T01:55:50.796Z,101632.97
2024-01-30T01:58:23.722Z,101640.13
2024-01-30T02:00:55.429Z,101646.75
2024-01-30T02:03:25.954Z,101653.91
2024-01-30T02:05:56.383Z,101651.69
2024-01-30T02:08:28.214Z,101653.31
2024-01-30T02:10:58.996Z,101654.16
2024-01-30T02:13:29.380Z,101655.50
2024-01-30T02:15:59.787Z,101661.00
2024-01-30T02:18:30.107Z,101659.88
2024-01-30T02:21:05.423Z,101658.78
2024-01-30T02:23:37.338Z,101660.13
2024-01-30T02:26:07.841Z,101674.22
2024-01-30T02:28:38.111Z,101673.09
2024-01-30T02:31:09.019Z,101670.28
2024-01-30T02:33:39.343Z,101667.28
2024-01-30T02:36:09.922Z,101668.09
2024-01-30T02:38:40.243Z,101676.38
2024-01-30T02:41:10.456Z,101676.09
2024-01-30T02:43:40.575Z,101673.03
2024-01-30T02:46:10.775Z,101665.56
2024-01-30T02:48:42.708Z,101671.63
2024-01-30T02:51:12.906Z,101669.69
2024-01-30T02:53:43.206Z,101668.88
2024-01-30T02:56:13.731Z,101664.69
2024-01-30T02:58:44.591Z,101663.03
2024-01-30T03:01:14.886Z,101669.09
2024-01-30T03:03:46.857Z,101656.94
2024-01-30T03:06:19.397Z,101657.78
2024-01-30T03:08:50.030Z,101648.66
2024-01-30T03:11:20.377Z,101652.81
2024-01-30T03:13:50.743Z,101648.09
2024-01-30T03:16:21.172Z,101646.97
2024-01-30T03:18:52.066Z,101645.31
2024-01-30T03:21:22.392Z,101634.00
2024-01-30T03:23:52.626Z,101644.22
2024-01-30T03:26:22.968Z,101635.63
2024-01-30T03:28:53.173Z,101640.88
2024-01-30T03:31:23.715Z,101636.16
2024-01-30T03:33:54.276Z,101638.91
2024-01-30T03:36:24.867Z,101641.94
2024-01-30T03:38:55.141Z,101632.03
2024-01-30T03:41:25.436Z,101627.88
2024-01-30T03:43:55.645Z,101628.13
2024-01-30T03:46:26.015Z,101622.34
2024-01-30T03:48:56.633Z,101629.78
2024-01-30T03:51:26.969Z,101612.41
2024-01-30T03:53:57.408Z,101614.88
2024-01-30T03:56:29.376Z,101615.19
2024-01-30T03:59:00.502Z,101611.84
2024-01-30T04:01:30.983Z,101610.41
2024-01-30T04:04:01.633Z,101612.06
2024-01-30T04:06:32.025Z,101609.28
2024-01-30T04:09:02.402Z,101608.19
2024-01-30T04:11:32.812Z,101595.19
2024-01-30T04:14:03.006Z,101599.59
2024-01-30T04:16:33.379Z,101584.16
2024-01-30T04:19:04.036Z,101589.09
2024-01-30T04:21:34.910Z,101594.31
2024-01-30T04:24:05.188Z,101589.41
2024-01-30T04:26:35.583Z,101585.50
2024-01-30T04:29:06.361Z,101578.63
2024-01-30T04:31:36.704Z,101576.94
2024-01-30T04:34:07.415Z,101578.56
2024-01-30T04:36:38.003Z,101572.25
2024-01-30T04:39:08.404Z,101559.25
2024-01-30T04:41:38.860Z,101560.09
2024-01-30T04:44:09.159Z,101563.34
2024-01-30T04:46:39.484Z,101549.56
2024-01-30T04:49:11.287Z,101553.94
2024-01-30T04:51:41.834Z,101555.59
2024-01-30T04:54:12.294Z,101546.50
2024-01-30T04:56:43.143Z,101545.66
2024-01-30T04:59:13.475Z,101543.75
2024-01-30T05:01:44.037Z,101538.22
2024-01-30T05:04:17.443Z,101530.75
2024-01-30T05:06:48.591Z,101531.28
2024-01-30T05:09:19.005Z,101522.47
2024-01-30T05:11:49.392Z,101516.97
2024-01-30T05:14:20.056Z,101511.97
2024-01-30T05:16:50.991Z,101508.41
2024-01-30T05:19:21.423Z,101505.34
2024-01-30T05:21:51.895Z,101493.78
2024-01-30T05:24:23.255Z,101485.22
2024-01-30T05:26:54.689Z,101482.44
2024-01-30T05:29:25.683Z,101471.41
2024-01-30T05:31:55.921Z,101469.16
2024-01-30T05:34:26.278Z,101465.25
2024-01-30T05:36:56.696Z,101456.69
2024-01-30T05:39:26.847Z,101450.34
2024-01-30T05:41:57.028Z,101445.66
2024-01-30T05:44:27.323Z,101440.66
2024-01-30T05:46:57.599Z,101437.91
2024-01-30T05:49:27.999Z,101432.66
2024-01-30T05:51:58.392Z,101426.88
2024-01-30T05:54:28.811Z,101414.47
2024-01-30T05:56:59.192Z,101424.41
2024-01-30T05:59:29.600Z,101414.19
2024-01-30T06:02:00.032Z,101408.66
2024-01-30T06:04:30.479Z,101397.63
2024-01-30T06:07:01.069Z,101394.56
2024-01-30T06:09:32.521Z,101388.75
2024-01-30T06:12:02.799Z,101384.34
2024-01-30T06:14:33.358Z,101389.25
2024-01-30T06:17:04.091Z,101382.59
2024-01-30T06:19:34.735Z,101381.28
2024-01-30T06:22:05.132Z,101370.22
2024-01-30T06:24:35.902Z,101356.13
2024-01-30T06:27:06.384Z,101358.88
2024-01-30T06:29:36.868Z,101348.69
2024-01-30T06:32:07.627Z,101342.03
2024-01-30T06:34:38.340Z,101341.44
2024-01-30T06:37:08.897Z,101327.41
2024-01-30T06:39:39.352Z,101319.63
2024-01-30T06:42:09.729Z,101319.34
2024-01-30T06:44:40.054Z,101311.06
2024-01-30T06:47:10.455Z,101308.31
2024-01-30T06:49:41.979Z,101300.84
2024-01-30T06:52:12.726Z,101298.38
2024-01-30T06:54:43.306Z,101300.03
2024-01-30T06:57:15.511Z,101295.63
2024-01-30T06:59:47.474Z,101289.47
2024-01-30T07:02:17.952Z,101279.88
2024-01-30T07:04:48.618Z,101280.72
2024-01-30T07:07:19.402Z,101271.31
2024-01-30T07:09:51.202Z,101265.78
2024-01-30T07:12:21.812Z,101269.66
2024-01-30T07:14:52.184Z,101258.31
2024-01-30T07:17:22.721Z,101256.69
2024-01-30T07:19:53.128Z,101259.63
2024-01-30T07:22:23.632Z,101252.47
2024-01-30T07:24:55.484Z,101248.28
2024-01-30T07:27:25.859Z,101243.38
2024-01-30T07:29:56.170Z,101246.66
2024-01-30T07:32:27.449Z,101247.47
2024-01-30T07:35:06.875Z,101240.81
2024-01-30T07:37:38.952Z,101240.00
2024-01-30T07:40:10.286Z,101236.94
2024-01-30T07:42:40.667Z,101238.56
2024-01-30T07:45:13.876Z,101229.50
2024-01-30T07:47:44.516Z,101228.97
2024-01-30T07:50:14.977Z,101233.56
2024-01-30T07:52:46.353Z,101225.59
2024-01-30T07:55:16.438Z,101236.31
2024-01-30T07:57:46.586Z,101230.81
2024-01-30T08:00:17.486Z,101222.34
2024-01-30T08:02:47.768Z,101223.97
2024-01-30T08:05:18.840Z,101223.66
2024-01-30T08:07:49.652Z,101222.34
2024-01-30T08:10:22.575Z,101221.22
2024-01-30T08:12:53.018Z,101221.22
2024-01-30T08:15:23.362Z,101218.94
2024-01-30T08:17:59.406Z,101216.69
2024-01-30T08:20:29.830Z,101222.84
2024-01-30T08:23:00.128Z,101216.69
2024-01-30T08:25:30.527Z,101210.66
2024-01-30T08:28:00.918Z,101219.44
2024-01-30T08:30:31.325Z,101212.00
2024-01-30T08:33:01.788Z,101206.16
2024-01-30T08:35:35.233Z,101207.28
2024-01-30T08:38:06.917Z,101205.63
2024-01-30T08:40:37.612Z,101210.34
2024-01-30T08:43:08.288Z,101207.59
2024-01-30T08:45:38.819Z,101208.91
2024-01-30T08:48:09.639Z,101207.59
2024-01-30T08:50:40.319Z,101216.16
2024-01-30T08:53:10.723Z,101212.00
2024-01-30T08:55:41.053Z,101224.44
2024-01-30T08:58:11.563Z,101212.00
2024-01-30T09:00:42.166Z,101208.09
2024-01-30T09:03:12.517Z,101224.66
2024-01-30T09:05:42.666Z,101221.06
2024-01-30T09:08:13.906Z,101215.25
2024-01-30T09:10:44.691Z,101214.13
2024-01-30T09:13:15.430Z,101216.91
2024-01-30T09:15:46.446Z,101214.63
2024-01-30T09:18:16.853Z,101215.44
2024-01-30T09:20:48.956Z,101218.53
2024-01-30T09:23:20.912Z,101217.91
2024-01-30T09:25:51.831Z,101215.44
2024-01-30T09:28:23.775Z,101228.13
2024-01-30T09:30:55.596Z,101232.03
2024-01-30T09:33:26.004Z,101239.19
2024-01-30T09:35:56.366Z,101236.69
2024-01-30T09:38:26.897Z,101239.19
2024-01-30T09:40:59.758Z,101236.41
2024-01-30T09:43:36.779Z,101233.66
2024-01-30T09:46:09.331Z,101245.53
2024-01-30T09:48:40.413Z,101244.69
2024-01-30T09:51:13.134Z,101244.91
2024-01-30T09:53:46.618Z,101245.75
2024-01-30T09:56:17.949Z,101258.72
2024-01-30T09:58:47.973Z,101252.91
2024-01-30T10:01:22.421Z,101257.59
2024-01-30T10:03:56.180Z,101255.97
2024-01-30T10:06:28.750Z,101260.03
2024-01-30T10:08:59.139Z,101260.34
2024-01-30T10:11:29.594Z,101262.31
2024-01-30T10:13:59.958Z,101265.06
2024-01-30T10:16:30.352Z,101263.44
2024-01-30T10:19:00.934Z,101262.31
2024-01-30T10:21:31.549Z,101269.75
2024-01-30T10:24:02.011Z,101272.84
2024-01-30T10:26:32.927Z,101276.41
2024-01-30T10:29:03.691Z,101280.81
2024-01-30T10:31:34.454Z,101273.34
2024-01-30T10:34:11.917Z,101273.03
2024-01-30T10:36:53.819Z,101278.06
2024-01-30T10:39:26.350Z,101282.97
2024-01-30T10:42:03.190Z,101286.84
2024-01-30T10:44:38.912Z,101288.81
2024-01-30T10:47:16.263Z,101291.56
2024-01-30T10:49:47.195Z,101291.56
2024-01-30T10:52:19.014Z,101288.47
2024-01-30T10:54:50.684Z,101294.00
2024-01-30T10:57:21.817Z,101297.09
2024-01-30T10:59:53.432Z,101302.09
2024-01-30T11:02:24.518Z,101308.94
2024-01-30T11:05:01.559Z,101304.84
2024-01-30T11:07:33.739Z,101306.78
2024-01-30T11:10:07.279Z,101310.88
2024-01-30T11:12:46.893Z,101317.53
2024-01-30T11:15:21.090Z,101316.69
2024-01-30T11:17:55.569Z,101312.00
2024-01-30T11:20:29.882Z,101313.94
2024-01-30T11:23:01.158Z,101318.66
2024-01-30T11:25:31.265Z,101323.88
2024-01-30T11:28:02.531Z,101323.88
2024-01-30T11:30:37.087Z,101340.09
2024-01-30T11:33:12.706Z,101341.25
2024-01-30T11:35:48.028Z,101345.16
2024-01-30T11:38:18.819Z,101351.16
2024-01-30T11:40:49.749Z,101357.00
2024-01-30T11:43:22.370Z,101353.44
2024-01-30T11:45:53.094Z,101360.06
2024-01-30T11:48:23.966Z,101363.63
2024-01-30T11:50:55.310Z,101361.72
2024-01-30T11:53:26.144Z,101365.28
2024-01-30T11:55:56.467Z,101361.72
2024-01-30T11:58:29.819Z,101367.84
2024-01-30T12:01:01.073Z,101368.34
2024-01-30T12:03:31.344Z,101369.16
2024-01-30T12:06:02.522Z,101369.47
2024-01-30T12:08:33.128Z,101372.44
2024-01-30T12:11:05.584Z,101384.59
2024-01-30T12:13:36.388Z,101371.91
2024-01-30T12:16:07.035Z,101382.16
2024-01-30T12:18:37.580Z,101388.81
2024-01-30T12:21:08.687Z,101394.84
2024-01-30T12:23:39.343Z,101400.03
2024-01-30T12:26:10.647Z,101402.91
2024-01-30T12:28:41.004Z,101399.84
2024-01-30T12:31:13.144Z,101410.88
2024-01-30T12:33:43.536Z,101408.94
2024-01-30T12:36:15.754Z,101411.69
2024-01-30T12:38:46.232Z,101413.94
2024-01-30T12:41:16.651Z,101419.75
2024-01-30T12:43:47.521Z,101426.34
2024-01-30T12:46:20.576Z,101430.78
2024-01-30T12:48:51.073Z,101436.88
2024-01-30T12:51:21.537Z,101445.16
2024-01-30T12:53:52.232Z,101454.22
2024-01-30T12:56:22.733Z,101457.00
2024-01-30T12:58:54.944Z,101456.44
2024-01-30T13:01:26.415Z,101466.09
2024-01-30T13:03:57.193Z,101471.09
2024-01-30T13:06:27.818Z,101471.09
2024-01-30T13:08:58.102Z,101477.44
2024-01-30T13:11:29.597Z,101483.47
2024-01-30T13:13:59.932Z,101484.88
2024-01-30T13:16:30.768Z,101481.59
2024-01-30T13:19:01.360Z,101482.97
2024-01-30T13:21:32.457Z,101490.97
2024-01-30T13:24:03.315Z,101488.19
2024-01-30T13:26:35.701Z,101487.66
2024-01-30T13:29:07.053Z,101489.84
2024-01-30T13:31:39.291Z,101505.88
2024-01-30T13:34:12.727Z,101503.38
2024-01-30T13:36:42.947Z,101509.75
2024-01-30T13:39:14.340Z,101507.53
2024-01-30T13:41:47.619Z,101518.56
2024-01-30T13:44:20.121Z,101520.78
2024-01-30T13:46:50.898Z,101516.94
2024-01-30T13:49:21.352Z,101519.13
2024-01-30T13:51:51.622Z,101532.38
2024-01-30T13:54:22.378Z,101529.06
2024-01-30T13:56:52.890Z,101531.25
2024-01-30T13:59:27.298Z,101531.25
2024-01-30T14:01:57.925Z,101531.81
2024-01-30T14:04:28.662Z,101531.38
2024-01-30T14:07:04.722Z,101539.13
2024-01-30T14:09:36.257Z,101547.53
2024-01-30T14:12:06.818Z,101548.94
2024-01-30T14:14:37.348Z,101549.75
2024-01-30T14:17:10.504Z,101557.84
2024-01-30T14:19:40.927Z,101564.47
2024-01-30T14:22:12.854Z,101564.47
2024-01-30T14:24:43.543Z,101568.88
2024-01-30T14:27:14.603Z,101571.31
2024-01-30T14:29:46.615Z,101575.41
2024-01-30T14:32:17.156Z,101574.09
2024-01-30T14:34:47.652Z,101584.75
2024-01-30T14:37:18.234Z,101589.22
2024-01-30T14:39:48.918Z,101589.84
2024-01-30T14:42:19.628Z,101599.50
2024-01-30T14:44:52.218Z,101597.28
2024-01-30T14:47:22.924Z,101604.75
2024-01-30T14:49:53.303Z,101606.47
2024-01-30T14:52:23.911Z,101603.50
2024-01-30T14:54:54.637Z,101613.09
2024-01-30T14:59:06.580Z,101619.88
2024-01-30T15:01:36.992Z,101612.72
2024-01-30T15:04:07.668Z,101622.97
2024-01-30T15:06:38.311Z,101617.44
2024-01-30T15:09:08.532Z,101619.44
2024-01-30T15:11:39.514Z,101613.31
2024-01-30T15:14:09.961Z,101611.59
2024-01-30T15:16:40.658Z,101616.44
2024-01-30T15:19:11.631Z,101613.47
2024-01-30T15:21:42.354Z,101607.19
2024-01-30T15:24:12.879Z,101606.78
2024-01-30T15:26:43.317Z,101603.53
2024-01-30T15:29:13.739Z,101603.25
2024-01-30T15:31:44.182Z,101603.91
2024-01-30T15:34:14.635Z,101599.44
2024-01-30T15:36:45.490Z,101604.97
2024-01-30T15:39:18.860Z,101611.09
2024-01-30T15:41:49.228Z,101607.19
2024-01-30T15:44:19.664Z,101608.03
2024-01-30T15:46:53.146Z,101608.84
2024-01-30T15:49:23.672Z,101603.63
2024-01-30T15:51:54.213Z,101612.72
2024-01-30T15:54:28.394Z,101604.75
2024-01-30T15:56:59.110Z,101602.81
2024-01-30T15:59:30.728Z,101603.41
2024-01-30T16:02:01.411Z,101604.50
2024-01-30T16:04:32.004Z,101605.03
2024-01-30T16:07:02.580Z,101602.59
2024-01-30T16:09:33.132Z,101599.63
2024-01-30T16:12:03.522Z,101599.31
2024-01-30T16:14:34.013Z,101595.22
2024-01-30T16:17:04.521Z,101597.66
2024-01-30T16:19:36.599Z,101591.34
2024-01-30T16:22:07.271Z,101598.50
2024-01-30T16:24:38.270Z,101587.75
2024-01-30T16:27:08.738Z,101595.22
2024-01-30T16:29:39.802Z,101588.84
2024-01-30T16:32:10.470Z,101585.88
2024-01-30T16:34:40.927Z,101583.66
2024-01-30T16:37:11.650Z,101578.94
2024-01-30T16:39:42.227Z,101575.66
2024-01-30T16:42:15.650Z,101574.00
2024-01-30T16:44:47.611Z,101575.91
2024-01-30T16:47:18.071Z,101572.00
2024-01-30T16:49:49.189Z,101566.25
2024-01-30T16:52:19.677Z,101574.00
2024-01-30T16:54:50.070Z,101568.78
2024-01-30T16:57:20.547Z,101565.72
2024-01-30T16:59:50.899Z,101568.50
2024-01-30T17:02:21.397Z,101565.44
2024-01-30T17:04:51.768Z,101566.25
2024-01-30T17:07:22.914Z,101567.09
2024-01-30T17:09:53.534Z,101563.50
2024-01-30T17:12:23.807Z,101557.44
2024-01-30T17:14:54.389Z,101554.19
2024-01-30T17:17:24.777Z,101558.06
2024-01-30T17:19:55.161Z,101552.56
2024-01-30T17:22:25.707Z,101553.16
2024-01-30T17:24:56.873Z,101558.34
2024-01-30T17:27:27.139Z,101556.13
2024-01-30T17:29:57.403Z,101550.91
2024-01-30T17:32:30.850Z,101556.13
2024-01-30T17:35:01.535Z,101551.72
2024-01-30T17:37:32.089Z,101552.84
2024-01-30T17:40:02.467Z,101546.00
2024-01-30T17:42:33.357Z,101548.44
2024-01-30T17:45:04.407Z,101541.28
2024-01-30T17:47:34.897Z,101535.25
2024-01-30T17:50:05.846Z,101539.13
2024-01-30T17:52:36.239Z,101531.88
2024-01-30T17:55:06.971Z,101535.84
2024-01-30T17:57:37.293Z,101542.69
2024-01-30T18:00:09.621Z,101541.91
2024-01-30T18:02:40.272Z,101538.50
2024-01-30T18:05:13.140Z,101542.91
2024-01-30T18:07:44.209Z,101532.78
2024-01-30T18:10:16.540Z,101525.63
2024-01-30T18:12:46.902Z,101523.19
2024-01-30T18:15:35.534Z,101526.22
2024-01-30T18:18:06.072Z,101520.94
2024-01-30T18:20:36.518Z,101513.25
2024-01-30T18:23:06.916Z,101510.50
2024-01-30T18:25:37.450Z,101509.38
2024-01-30T18:28:09.128Z,101508.84
2024-01-30T18:30:39.616Z,101497.88
2024-01-30T18:33:10.316Z,101503.94
2024-01-30T18:35:40.766Z,101499.84
2024-01-30T18:38:11.138Z,101502.38
2024-01-30T18:40:41.697Z,101500.44
2024-01-30T18:43:12.120Z,101492.97
2024-01-30T18:45:42.644Z,101496.56
2024-01-30T18:48:13.108Z,101488.50
2024-01-30T18:50:43.448Z,101488.81
2024-01-30T18:53:13.738Z,101482.47
2024-01-30T18:55:44.099Z,101484.41
2024-01-30T18:58:14.732Z,101482.97
2024-01-30T19:00:48.348Z,101471.34
2024-01-30T19:03:21.229Z,101470.53
2024-01-30T19:05:51.997Z,101464.72
2024-01-30T19:08:22.711Z,101466.16
2024-01-30T19:10:53.179Z,101462.34
2024-01-30T19:13:23.931Z,101454.34
2024-01-30T19:15:54.390Z,101464.88
2024-01-30T19:18:24.813Z,101462.63
2024-01-30T19:20:55.188Z,101460.19
2024-01-30T19:23:25.635Z,101455.50
2024-01-30T19:25:56.065Z,101453.03
2024-01-30T19:28:26.656Z,101452.47
2024-01-30T19:30:57.793Z,101451.66
2024-01-30T19:33:28.023Z,101448.38
2024-01-30T19:35:58.489Z,101449.19
2024-01-30T19:38:29.040Z,101453.84
2024-01-30T19:41:00.593Z,101446.69
2024-01-30T19:43:31.246Z,101441.75
2024-01-30T19:46:03.086Z,101436.50
2024-01-30T19:48:33.711Z,101445.09
2024-01-30T19:51:04.455Z,101439.56
2024-01-30T19:53:35.773Z,101437.94
2024-01-30T19:56:07.925Z,101437.13
2024-01-30T19:58:38.753Z,101437.13
2024-01-30T20:01:09.501Z,101434.66
2024-01-30T20:03:39.934Z,101435.19
2024-01-30T20:06:12.418Z,101430.78
2024-01-30T20:08:43.102Z,101433.84
2024-01-30T20:11:18.178Z,101430.25
2024-01-30T20:13:48.547Z,101436.28
2024-01-30T20:16:19.056Z,101432.72
2024-01-30T20:18:49.832Z,101435.50
2024-01-30T20:21:20.395Z,101435.50
2024-01-30T20:23:52.560Z,101426.69
2024-01-30T20:26:23.025Z,101431.38
2024-01-30T20:28:57.084Z,101424.75
2024-01-30T20:31:27.889Z,101433.00
2024-01-30T20:33:58.650Z,101422.59
2024-01-30T20:36:29.025Z,101417.91
2024-01-30T20:38:59.251Z,101422.59
2024-01-30T20:41:30.457Z,101419.31
2024-01-30T20:44:01.331Z,101417.09
2024-01-30T20:46:31.858Z,101414.63
2024-01-30T20:49:02.832Z,101422.91
2024-01-30T20:51:33.377Z,101418.50
2024-01-30T20:54:03.825Z,101422.69
2024-01-30T20:56:34.156Z,101426.78
2024-01-30T20:59:04.460Z,101423.19
2024-01-30T21:01:35.021Z,101433.91
2024-01-30T21:04:05.567Z,101434.22
2024-01-30T21:06:36.590Z,101426.78
2024-01-30T21:09:07.144Z,101438.91
2024-01-30T21:11:37.958Z,101440.03
2024-01-30T21:14:09.750Z,101443.91
2024-01-30T21:16:41.210Z,101440.88
2024-01-30T21:19:13.489Z,101446.66
2024-01-30T21:21:43.828Z,101444.16
2024-01-30T21:24:14.609Z,101446.38
2024-01-30T21:26:45.056Z,101455.25
2024-01-30T21:29:15.353Z,101463.22
2024-01-30T21:31:49.750Z,101458.31
2024-01-30T21:34:20.114Z,101460.25
2024-01-30T21:36:50.699Z,101455.84
2024-01-30T21:39:20.871Z,101454.19
2024-01-30T21:41:51.183Z,101458.06
2024-01-30T21:44:21.687Z,101445.34
2024-01-30T21:46:52.172Z,101456.38
2024-01-30T21:49:23.056Z,101452.28
2024-01-30T21:51:56.316Z,101444.00
2024-01-30T21:54:26.857Z,101444.81
2024-01-30T21:56:57.200Z,101452.56
2024-01-30T21:59:27.615Z,101447.03
2024-01-30T22:01:58.146Z,101448.03
2024-01-30T22:04:30.381Z,101453.00
2024-01-30T22:07:01.081Z,101463.81
2024-01-30T22:09:31.710Z,101457.78
2024-01-30T22:12:01.838Z,101457.25
2024-01-30T22:14:34.357Z,101457.84
2024-01-30T22:17:06.969Z,101467.19
2024-01-30T22:19:37.250Z,101467.47
2024-01-30T22:22:07.853Z,101470.16
2024-01-30T22:24:38.309Z,101468.72
2024-01-30T22:27:08.990Z,101474.34
2024-01-30T22:29:39.284Z,101471.25
2024-01-30T22:32:10.079Z,101468.56
2024-01-30T22:34:41.368Z,101475.22
2024-01-30T22:37:11.442Z,101482.34
2024-01-30T22:39:41.629Z,101477.69
2024-01-30T22:42:12.175Z,101481.56
2024-01-30T22:44:42.569Z,101490.03
2024-01-30T22:47:12.917Z,101495.88
2024-01-30T22:49:43.398Z,101495.03
2024-01-30T22:52:13.773Z,101497.56
2024-01-30T22:56:15.417Z,101495.56
2024-01-30T22:58:46.048Z,101500.16
2024-01-30T23:01:16.458Z,101498.03
2024-01-30T23:03:46.815Z,101498.91
2024-01-30T23:06:17.366Z,101493.16
2024-01-30T23:08:47.822Z,101495.66
2024-01-30T23:11:18.179Z,101493.69
2024-01-30T23:13:48.559Z,101489.09
2024-01-30T23:16:18.994Z,101492.13
2024-01-30T23:18:49.454Z,101492.44
2024-01-30T23:21:20.274Z,101500.38
2024-01-30T23:23:50.633Z,101501.22
2024-01-30T23:26:20.994Z,101503.97
2024-01-30T23:28:51.489Z,101499.06
2024-01-30T23:31:21.843Z,101503.13
2024-01-30T23:33:52.478Z,101505.69
2024-01-30T23:36:22.965Z,101511.50
2024-01-30T23:38:53.462Z,101502.69
2024-01-30T23:41:23.917Z,101498.53
2024-01-30T23:43:54.430Z,101498.00
2024-01-30T23:46:24.818Z,101502.66
2024-01-30T23:48:55.212Z,101508.38
2024-01-30T23:51:25.636Z,101503.97
2024-01-30T23:53:56.025Z,101511.41
2024-01-30T23:56:26.625Z,101515.91
2024-01-30T23:58:56.903Z,101510.13
